Flight Track Log - Related Links

Times and Time Zones

All times are in EDT time to prevent confusion due to time zone crossing. See the EJA729 flight status page for this flight to view local times or setup timezone preferences in your user account.

Time Position Orientation Groundspeed Altitude Reporting Facility
EDT Latitude Longitude Course Direction KTS MPH feet Rate Location/Type
Wed 03:14:14 PM 41.1000 -73.7500 255° West 195 224 2,400  Level New York TRACON
Wed 03:15:14 PM 41.0833 -73.8333 255° West 241 277 5,800 3,900 Climbing New York TRACON
Wed 03:16:14 PM 41.0333 -73.9167 232° Southwest 273 314 10,200 3,700 Climbing New York TRACON
Wed 03:17:14 PM 41.0000 -74.0167 246° West 320 368 13,200 2,400 Climbing New York TRACON
Wed 03:18:14 PM 40.9667 -74.1333 249° West 372 428 15,000 900 Climbing New York TRACON
Wed 03:19:14 PM 40.9167 -74.2667 244° Southwest 381 438 15,000  Level New York TRACON
Wed 03:20:14 PM 40.8833 -74.3833 249° West 371 427 15,000  Level New York TRACON
Wed 03:21:51 PM 40.8314 -74.5831 251° West 368 423 15,000 382 Level New York Center
Wed 03:22:51 PM 40.7939 -74.7044 248° West 368 423 16,000 1,000 Climbing New York Center
Wed 03:23:51 PM 40.7564 -74.8311 249° West 368 423 17,000 1,322 Climbing New York Center
Wed 03:24:49 PM 40.7231 -74.9467 249° West 378 435 18,600 2,319 Climbing New York Center
Wed 03:25:50 PM 40.6761 -75.0944 247° West 390 449 21,600 2,727 Climbing New York Center
Wed 03:26:50 PM 40.6194 -75.2194 239° Southwest 390 449 24,100 2,300 Climbing New York Center
Wed 03:27:50 PM 40.5625 -75.3467 240° Southwest 400 460 26,200 1,736 Climbing New York Center
Wed 03:28:51 PM 40.5072 -75.4769 241° Southwest 410 472 27,600 1,140 Climbing New York Center
Wed 03:29:51 PM 40.4928 -75.6286 263° West 401 461 28,500 1,119 Climbing New York Center
Wed 03:30:49 PM 40.4822 -75.7808 265° West 413 475 29,800 1,412 Climbing New York Center
Wed 03:31:50 PM 40.4456 -75.9064 249° West 413 475 31,300 1,488 Climbing New York Center
Wed 03:32:50 PM 40.3917 -76.0442 243° Southwest 413 475 32,800 1,488 Climbing New York Center
Wed 03:33:51 PM 40.3381 -76.1706 241° Southwest 402 463 34,300 1,488 Climbing New York Center
Wed 03:34:51 PM 40.2908 -76.2894 243° Southwest 384 442 35,800 642 Climbing New York Center
Wed 03:36:30 PM 40.2167 -76.4797 243° Southwest 385 443 36,000 75 Climbing Washington Center
Wed 03:37:30 PM 40.1678 -76.6014 242° Southwest 385 443 36,000  Level Washington Center
Wed 03:38:30 PM 40.1186 -76.7253 243° Southwest 385 443 36,000  Level Washington Center
Wed 03:39:29 PM 40.0694 -76.8519 243° Southwest 385 443 36,000  Level Washington Center
Wed 03:40:30 PM 40.0139 -76.9839 241° Southwest 377 434 36,000  Level Washington Center
Wed 03:41:28 PM 39.9625 -77.1100 242° Southwest 391 450 36,000  Level Washington Center
Wed 03:42:28 PM 39.9128 -77.2361 243° Southwest 391 450 36,000  Level Washington Center
Wed 03:43:29 PM 39.8611 -77.3619 242° Southwest 391 450 36,000  Level Washington Center
Wed 03:44:29 PM 39.8092 -77.4850 241° Southwest 396 456 36,000  Level Washington Center
Wed 03:45:30 PM 39.7592 -77.6106 243° Southwest 396 456 36,000  Level Washington Center
Wed 03:46:28 PM 39.7092 -77.7358 243° Southwest 396 456 36,000 508 Level Washington Center
Wed 03:47:28 PM 39.6589 -77.8611 242° Southwest 396 456 37,000 992 Climbing Washington Center
Wed 03:48:29 PM 39.6089 -77.9781 241° Southwest 396 456 38,000 496 Climbing Washington Center
Wed 03:49:29 PM 39.5586 -78.0975 241° Southwest 390 449 38,000  Level Washington Center
Wed 03:50:30 PM 39.5100 -78.2169 242° Southwest 384 442 38,000  Level Washington Center
Wed 03:51:28 PM 39.4572 -78.3386 241° Southwest 384 442 38,000  Level Washington Center
Wed 03:52:29 PM 39.4086 -78.4575 242° Southwest 384 442 38,000  Level Washington Center
Wed 03:53:30 PM 39.3578 -78.5792 242° Southwest 384 442 38,000  Level Washington Center
Wed 03:54:30 PM 39.3069 -78.7003 242° Southwest 384 442 38,000  Level Washington Center
Wed 03:55:28 PM 39.2536 -78.8214 240° Southwest 389 448 38,000  Level Washington Center
Wed 03:56:28 PM 39.2025 -78.9425 241° Southwest 389 448 38,000  Level Washington Center
Wed 03:57:28 PM 39.1508 -79.0658 242° Southwest 389 448 38,000  Level Washington Center
Wed 03:58:29 PM 39.0994 -79.1839 241° Southwest 389 448 38,000  Level Washington Center
Wed 03:59:30 PM 39.0458 -79.3067 241° Southwest 389 448 38,000  Level Washington Center
Wed 04:00:28 PM 38.9961 -79.4244 242° Southwest 389 448 38,000  Level Washington Center
Wed 04:01:29 PM 38.9422 -79.5469 241° Southwest 389 448 38,000  Level Washington Center
Wed 04:02:30 PM 38.8944 -79.6619 242° Southwest 394 453 38,000  Level Washington Center
Wed 04:04:24 PM 38.7856 -79.8964 239° Southwest 394 453 38,000  Level Indianapolis Center
Wed 04:05:26 PM 38.7311 -80.0186 240° Southwest 394 453 38,000  Level Indianapolis Center
Wed 04:06:28 PM 38.6767 -80.1422 241° Southwest 397 457 38,000  Level Indianapolis Center
Wed 04:07:30 PM 38.6422 -80.2775 252° West 402 463 38,000  Level Indianapolis Center
Wed 04:08:32 PM 38.6164 -80.4147 256° West 400 460 38,000  Level Indianapolis Center
Wed 04:09:34 PM 38.5850 -80.5814 257° West 401 461 38,000  Level Indianapolis Center
Wed 04:10:36 PM 38.5586 -80.7206 256° West 401 461 38,000  Level Indianapolis Center
Wed 04:11:38 PM 38.5311 -80.8636 256° West 407 468 38,000  Level Indianapolis Center
Wed 04:12:40 PM 38.5200 -81.0067 264° West 408 470 38,000  Level Indianapolis Center
Wed 04:13:42 PM 38.5058 -81.1525 263° West 412 474 38,000  Level Indianapolis Center
Wed 04:14:44 PM 38.4919 -81.2994 263° West 413 475 38,000  Level Indianapolis Center
Wed 04:15:46 PM 38.4778 -81.4475 263° West 415 478 38,000  Level Indianapolis Center
Wed 04:16:48 PM 38.4633 -81.5978 263° West 420 483 38,000  Level Indianapolis Center
Wed 04:17:50 PM 38.4494 -81.7478 263° West 420 483 38,000  Level Indianapolis Center
Wed 04:18:52 PM 38.4325 -81.9258 263° West 420 483 38,000  Level Indianapolis Center
Wed 04:19:54 PM 38.4175 -82.0742 263° West 420 483 38,000  Level Indianapolis Center
Wed 04:20:56 PM 38.4028 -82.2244 263° West 425 489 38,000  Level Indianapolis Center
Wed 04:21:58 PM 38.3869 -82.3744 262° West 427 491 38,000  Level Indianapolis Center
Wed 04:23:01 PM 38.3703 -82.5347 262° West 429 494 38,000  Level Indianapolis Center
Wed 04:24:03 PM 38.3556 -82.6856 263° West 429 494 38,000  Level Indianapolis Center
Wed 04:25:05 PM 38.3394 -82.8369 262° West 431 496 38,000  Level Indianapolis Center
Wed 04:26:07 PM 38.3194 -83.0133 262° West 431 496 38,000  Level Indianapolis Center
Wed 04:27:09 PM 38.3033 -83.1656 262° West 434 499 38,000  Level Indianapolis Center
Wed 04:28:11 PM 38.2864 -83.3169 262° West 434 499 38,000  Level Indianapolis Center
Wed 04:29:13 PM 38.2689 -83.4700 262° West 436 502 38,000  Level Indianapolis Center
Wed 04:30:15 PM 38.2519 -83.6214 262° West 434 499 38,000  Level Indianapolis Center
Wed 04:31:17 PM 38.2311 -83.8011 262° West 439 505 38,000  Level Indianapolis Center
Wed 04:32:19 PM 38.2131 -83.9547 262° West 440 506 38,000  Level Indianapolis Center
Wed 04:33:21 PM 38.1956 -84.1092 262° West 441 507 38,000  Level Indianapolis Center
Wed 04:34:23 PM 38.1764 -84.2631 261° West 441 507 38,000  Level Indianapolis Center
Wed 04:35:25 PM 38.1586 -84.4161 262° West 440 506 38,000  Level Indianapolis Center
Wed 04:36:27 PM 38.1361 -84.5969 261° West 443 510 38,000  Level Indianapolis Center
Wed 04:37:29 PM 38.1175 -84.7500 261° West 440 506 38,000  Level Indianapolis Center
Wed 04:38:31 PM 38.0986 -84.9025 261° West 438 504 38,000  Level Indianapolis Center
Wed 04:39:33 PM 38.0797 -85.0569 261° West 442 509 38,000  Level Indianapolis Center
Wed 04:40:35 PM 38.0606 -85.2036 261° West 439 505 38,000  Level Indianapolis Center
Wed 04:41:37 PM 38.0406 -85.3567 261° West 437 503 38,000  Level Indianapolis Center
Wed 04:42:39 PM 38.0178 -85.5403 261° West 439 505 38,000  Level Indianapolis Center
Wed 04:43:41 PM 37.9981 -85.6919 261° West 436 502 38,000  Level Indianapolis Center
Wed 04:44:43 PM 37.9764 -85.8453 260° West 438 504 38,000  Level Indianapolis Center
Wed 04:45:45 PM 37.9572 -85.9969 261° West 436 502 38,000  Level Indianapolis Center
Wed 04:46:48 PM 37.9364 -86.1481 260° West 435 501 38,000  Level Indianapolis Center
Wed 04:47:50 PM 37.9147 -86.3019 260° West 439 505 38,000  Level Indianapolis Center
Wed 04:48:52 PM 37.8942 -86.4544 260° West 436 502 38,000  Level Indianapolis Center
Wed 04:49:54 PM 37.8722 -86.6061 260° West 437 503 38,000  Level Indianapolis Center
Wed 04:50:56 PM 37.8461 -86.7906 260° West 439 505 38,000  Level Indianapolis Center
Wed 04:51:58 PM 37.8247 -86.9436 260° West 437 503 38,000  Level Indianapolis Center
Wed 04:53:00 PM 37.8019 -87.0983 259° West 441 507 38,000  Level Indianapolis Center
Wed 04:54:02 PM 37.7814 -87.2456 260° West 442 509 38,000  Level Indianapolis Center
Wed 04:55:04 PM 37.7586 -87.3983 259° West 441 507 38,000  Level Indianapolis Center
Wed 04:56:06 PM 37.7317 -87.5775 259° West 442 509 38,000  Level Indianapolis Center
Wed 04:57:08 PM 37.7094 -87.7306 260° West 441 507 38,000  Level Indianapolis Center
Wed 04:58:10 PM 37.6867 -87.8828 259° West 439 505 38,000  Level Indianapolis Center
Wed 04:59:12 PM 37.6636 -88.0367 259° West 442 509 38,000  Level Indianapolis Center
Wed 05:00:14 PM 37.6400 -88.1900 259° West 442 509 38,000  Level Indianapolis Center
Wed 05:01:16 PM 37.6136 -88.3561 259° West 444 511 38,000  Level Indianapolis Center
Wed 05:02:18 PM 37.5922 -88.5078 260° West 441 507 38,000  Level Indianapolis Center
Wed 05:03:20 PM 37.6133 -88.6567 280° West 427 491 38,000  Level Indianapolis Center
Wed 05:04:22 PM 37.6361 -88.8039 281° West 426 490 38,000  Level Indianapolis Center
Wed 05:05:24 PM 37.6583 -88.9522 281° West 428 493 38,000  Level Indianapolis Center
Wed 05:06:26 PM 37.6828 -89.0994 282° West 428 493 38,000  Level Indianapolis Center
Wed 05:07:29 PM 37.6950 -89.2792 275° West 429 494 38,000  Level Indianapolis Center
Wed 05:08:38 PM 37.6956 -89.4350 270° West 432 497 38,000  Level Kansas City Center
Wed 05:09:40 PM 37.6964 -89.5842 270° West 430 495 38,000  Level Kansas City Center
Wed 05:10:42 PM 37.6847 -89.7322 264° West 434 499 38,000  Level Kansas City Center
Wed 05:11:44 PM 37.6447 -89.9103 254° West 439 505 38,000  Level Kansas City Center
Wed 05:12:46 PM 37.6142 -90.0572 255° West 436 502 38,000  Level Kansas City Center
Wed 05:13:48 PM 37.5811 -90.2036 254° West 436 502 38,000  Level Kansas City Center
Wed 05:14:50 PM 37.5489 -90.3486 254° West 431 496 38,000  Level Kansas City Center
Wed 05:15:52 PM 37.5167 -90.4950 255° West 432 497 38,000  Level Kansas City Center
Wed 05:16:54 PM 37.4836 -90.6400 254° West 432 497 38,000  Level Kansas City Center
Wed 05:17:56 PM 37.4456 -90.8058 254° West 429 494 38,000  Level Kansas City Center
Wed 05:18:58 PM 37.4128 -90.9514 254° West 429 494 38,000  Level Kansas City Center
Wed 05:20:00 PM 37.3803 -91.0939 254° West 426 490 38,000  Level Kansas City Center
Wed 05:21:02 PM 37.3478 -91.2361 254° West 423 487 38,000  Level Kansas City Center
Wed 05:22:04 PM 37.3158 -91.3761 254° West 418 481 38,000  Level Kansas City Center
Wed 05:23:06 PM 37.2753 -91.5436 253° West 416 479 38,000  Level Kansas City Center
Wed 05:24:08 PM 37.2439 -91.6844 254° West 416 479 38,000  Level Kansas City Center
Wed 05:25:10 PM 37.2114 -91.8236 254° West 415 478 38,000  Level Kansas City Center
Wed 05:26:12 PM 37.1781 -91.9639 253° West 416 479 38,000  Level Kansas City Center
Wed 05:27:14 PM 37.1453 -92.1025 254° West 415 478 38,000  Level Kansas City Center
Wed 05:28:16 PM 37.1119 -92.2411 253° West 413 475 38,000  Level Kansas City Center
Wed 05:29:18 PM 37.0789 -92.3792 253° West 413 475 38,000  Level Kansas City Center
Wed 05:30:20 PM 37.0456 -92.5164 253° West 410 472 38,000  Level Kansas City Center
Wed 05:31:22 PM 37.0061 -92.6817 253° West 411 473 38,000  Level Kansas City Center
Wed 05:32:24 PM 36.9789 -92.8194 256° West 408 470 38,000  Level Kansas City Center
Wed 05:33:26 PM 36.9517 -92.9589 256° West 410 472 38,000  Level Kansas City Center
Wed 05:34:28 PM 36.9231 -93.0972 256° West 410 472 38,000  Level Kansas City Center
Wed 05:35:30 PM 36.8947 -93.2356 256° West 410 472 38,000  Level Kansas City Center
Wed 05:36:32 PM 36.8661 -93.3758 256° West 410 472 38,000  Level Kansas City Center
Wed 05:37:34 PM 36.8375 -93.5119 255° West 408 470 38,000  Level Kansas City Center
Wed 05:38:36 PM 36.8103 -93.6483 256° West 407 468 38,000  Level Kansas City Center
Wed 05:39:38 PM 36.7747 -93.8128 255° West 417 480 38,000  Level Kansas City Center
Wed 05:40:41 PM 36.7453 -93.9508 255° West 414 476 38,000  Level Kansas City Center
Wed 05:41:43 PM 36.7161 -94.0889 255° West 412 474 38,000  Level Kansas City Center
Wed 05:42:45 PM 36.6861 -94.2267 255° West 412 474 38,000  Level Kansas City Center
Wed 05:43:47 PM 36.6489 -94.3922 254° West 413 475 38,000  Level Kansas City Center
Wed 05:44:49 PM 36.6183 -94.5303 255° West 413 475 38,000  Level Kansas City Center
Wed 05:45:51 PM 36.5883 -94.6681 255° West 413 475 38,000  Level Kansas City Center
Wed 05:46:53 PM 36.5581 -94.8050 255° West 412 474 38,000  Level Kansas City Center
Wed 05:47:55 PM 36.5269 -94.9436 254° West 414 476 38,000  Level Kansas City Center
Wed 05:48:57 PM 36.4967 -95.0808 255° West 413 475 38,000 -97 Level Kansas City Center
Wed 05:49:59 PM 36.4633 -95.2258 254° West 412 474 37,800 -871 Descending Kansas City Center
Wed 05:51:01 PM 36.4317 -95.3633 254° West 412 474 36,200 -1,742 Descending Kansas City Center
Wed 05:52:03 PM 36.3989 -95.5025 254° West 416 479 34,200 -1,887 Descending Kansas City Center
Wed 05:53:05 PM 36.3617 -95.6758 255° West 429 494 32,300 -1,935 Descending Kansas City Center
Wed 05:54:07 PM 36.3253 -95.8339 254° West 445 512 30,200 -1,839 Descending Kansas City Center
Wed 05:55:09 PM 36.2914 -95.9833 254° West 449 517 28,500 -1,548 Descending Kansas City Center
Wed 05:56:11 PM 36.2558 -96.1358 254° West 457 526 27,000 -1,742 Descending Kansas City Center
Wed 05:57:13 PM 36.2186 -96.2911 253° West 466 536 24,900 -2,032 Descending Kansas City Center
Wed 05:58:15 PM 36.1833 -96.4422 254° West 461 531 22,800 -2,081 Descending Kansas City Center
Wed 05:59:17 PM 36.1494 -96.5850 254° West 439 505 20,600 -2,371 Descending Kansas City Center
Wed 06:00:19 PM 36.1086 -96.7514 253° West 425 489 17,900 -2,371 Descending Kansas City Center
Wed 06:01:21 PM 36.0806 -96.8722 254° West 410 472 15,700 -2,177 Descending Kansas City Center
Wed 06:02:23 PM 36.0503 -96.9964 253° West 388 447 13,400 -2,129 Descending Kansas City Center
Wed 06:03:25 PM 36.0203 -97.1156 253° West 372 428 11,300 -1,839 Descending Kansas City Center
Wed 06:04:27 PM 35.9672 -97.2192 238° Southwest 314 361 9,600 -1,444 Descending Kansas City Center
Wed 06:06:07 PM 35.8608 -97.3214 218° Southwest 278 320 7,400 -1,355 Descending Fort Worth Center
Wed 06:07:02 PM 35.8067 -97.3753 219° Southwest 276 318 6,100 -1,180 Descending Fort Worth Center
Wed 06:08:09 PM 35.7419 -97.4417 220° Southwest 260 299 5,000 -797 Descending Fort Worth Center
Wed 06:09:10 PM 35.6897 -97.5006 222° Southwest 252 290 4,400 -496 Descending Fort Worth Center
Wed 06:10:10 PM 35.6458 -97.5542 225° Southwest 233 268 4,000 -198 Descending Fort Worth Center
Wed 06:11:11 PM 35.5917 -97.5947 211° Southwest 225 259 4,000 -98 Level Fort Worth Center
Wed 06:12:12 PM 35.5353 -97.5922 178° South 203 234 3,800 -639 Descending Fort Worth Center
Wed 06:13:13 PM 35.4792 -97.5944 182° South 191 220 2,700 -939 Descending Fort Worth Center
Wed 06:14:07 PM 35.4436 -97.5919 177° South 136 157 2,000 -778 Descending Fort Worth Center

Login

Don't have an account? Register now (free) for customized features, flight alerts, and more!